sensor_id;sensor_type;location;lat;lon;timestamp;temperature;humidity
41437;DHT22;27178;49.460;10.850;2024-01-10T00:00:03;0.40;55.30
41437;DHT22;27178;49.460;10.850;2024-01-10T00:02:31;0.40;55.50
41437;DHT22;27178;49.460;10.850;2024-01-10T00:05:00;0.40;55.50
41437;DHT22;27178;49.460;10.850;2024-01-10T00:07:28;0.40;55.50
41437;DHT22;27178;49.460;10.850;2024-01-10T00:09:56;0.40;55.60
41437;DHT22;27178;49.460;10.850;2024-01-10T00:12:28;0.40;55.70
41437;DHT22;27178;49.460;10.850;2024-01-10T00:15:00;0.40;55.70
41437;DHT22;27178;49.460;10.850;2024-01-10T00:17:28;0.40;55.80
41437;DHT22;27178;49.460;10.850;2024-01-10T00:19:57;0.40;55.70
41437;DHT22;27178;49.460;10.850;2024-01-10T00:22:25;0.40;55.90
41437;DHT22;27178;49.460;10.850;2024-01-10T00:24:53;0.40;55.80
41437;DHT22;27178;49.460;10.850;2024-01-10T00:27:21;0.40;55.60
41437;DHT22;27178;49.460;10.850;2024-01-10T00:29:51;0.40;55.60
41437;DHT22;27178;49.460;10.850;2024-01-10T00:32:19;0.30;55.60
41437;DHT22;27178;49.460;10.850;2024-01-10T00:34:48;0.30;55.70
41437;DHT22;27178;49.460;10.850;2024-01-10T00:37:16;0.30;55.80
41437;DHT22;27178;49.460;10.850;2024-01-10T00:39:44;0.30;55.90
41437;DHT22;27178;49.460;10.850;2024-01-10T00:42:12;0.30;56.00
41437;DHT22;27178;49.460;10.850;2024-01-10T00:44:40;0.30;56.00
41437;DHT22;27178;49.460;10.850;2024-01-10T00:47:11;0.30;56.00
41437;DHT22;27178;49.460;10.850;2024-01-10T00:49:40;0.30;56.20
41437;DHT22;27178;49.460;10.850;2024-01-10T00:52:08;0.30;56.20
41437;DHT22;27178;49.460;10.850;2024-01-10T00:54:36;0.30;56.20
41437;DHT22;27178;49.460;10.850;2024-01-10T00:57:04;0.40;56.30
41437;DHT22;27178;49.460;10.850;2024-01-10T00:59:32;0.30;56.20
41437;DHT22;27178;49.460;10.850;2024-01-10T01:02:01;0.30;56.30
41437;DHT22;27178;49.460;10.850;2024-01-10T01:04:30;0.30;56.40
41437;DHT22;27178;49.460;10.850;2024-01-10T01:06:59;0.30;56.40
41437;DHT22;27178;49.460;10.850;2024-01-10T01:09:27;0.30;56.40
41437;DHT22;27178;49.460;10.850;2024-01-10T01:11:55;0.30;56.50
41437;DHT22;27178;49.460;10.850;2024-01-10T01:14:23;0.30;56.50
41437;DHT22;27178;49.460;10.850;2024-01-10T01:16:51;0.30;56.60
41437;DHT22;27178;49.460;10.850;2024-01-10T01:19:21;0.30;56.60
41437;DHT22;27178;49.460;10.850;2024-01-10T01:21:50;0.30;56.50
41437;DHT22;27178;49.460;10.850;2024-01-10T01:24:19;0.30;56.30
41437;DHT22;27178;49.460;10.850;2024-01-10T01:26:47;0.20;56.10
41437;DHT22;27178;49.460;10.850;2024-01-10T01:29:15;0.20;56.20
41437;DHT22;27178;49.460;10.850;2024-01-10T01:31:44;0.20;56.40
41437;DHT22;27178;49.460;10.850;2024-01-10T01:34:12;0.10;56.50
41437;DHT22;27178;49.460;10.850;2024-01-10T01:36:41;0.10;56.50
41437;DHT22;27178;49.460;10.850;2024-01-10T01:39:10;0.10;56.60
41437;DHT22;27178;49.460;10.850;2024-01-10T01:41:40;0.10;56.80
41437;DHT22;27178;49.460;10.850;2024-01-10T01:44:08;0.10;56.80
41437;DHT22;27178;49.460;10.850;2024-01-10T01:46:37;0.10;56.80
41437;DHT22;27178;49.460;10.850;2024-01-10T01:49:07;0.00;56.80
41437;DHT22;27178;49.460;10.850;2024-01-10T01:51:36;0.10;56.80
41437;DHT22;27178;49.460;10.850;2024-01-10T01:54:07;0.00;56.80
41437;DHT22;27178;49.460;10.850;2024-01-10T01:56:37;0.00;56.80
41437;DHT22;27178;49.460;10.850;2024-01-10T01:59:07;0.00;56.70
41437;DHT22;27178;49.460;10.850;2024-01-10T02:01:36;0.00;56.60
41437;DHT22;27178;49.460;10.850;2024-01-10T02:04:04;0.00;56.80
41437;DHT22;27178;49.460;10.850;2024-01-10T02:06:32;0.00;56.60
41437;DHT22;27178;49.460;10.850;2024-01-10T02:09:01;0.00;56.50
41437;DHT22;27178;49.460;10.850;2024-01-10T02:11:30;-0.10;56.60
41437;DHT22;27178;49.460;10.850;2024-01-10T02:14:00;-0.10;56.90
41437;DHT22;27178;49.460;10.850;2024-01-10T02:16:28;-0.10;57.60
41437;DHT22;27178;49.460;10.850;2024-01-10T02:18:57;-0.10;57.00
41437;DHT22;27178;49.460;10.850;2024-01-10T02:21:25;-0.10;56.90
41437;DHT22;27178;49.460;10.850;2024-01-10T02:23:53;0.00;57.00
41437;DHT22;27178;49.460;10.850;2024-01-10T02:26:23;-0.10;56.80
41437;DHT22;27178;49.460;10.850;2024-01-10T02:28:51;-0.10;56.80
41437;DHT22;27178;49.460;10.850;2024-01-10T02:31:22;-0.10;56.80
41437;DHT22;27178;49.460;10.850;2024-01-10T02:33:50;-0.10;56.70
41437;DHT22;27178;49.460;10.850;2024-01-10T02:36:18;-0.10;56.50
41437;DHT22;27178;49.460;10.850;2024-01-10T02:38:46;-0.10;56.50
41437;DHT22;27178;49.460;10.850;2024-01-10T02:41:15;-0.10;56.50
41437;DHT22;27178;49.460;10.850;2024-01-10T02:43:45;-0.20;56.60
41437;DHT22;27178;49.460;10.850;2024-01-10T02:46:13;-0.20;56.50
41437;DHT22;27178;49.460;10.850;2024-01-10T02:48:41;-0.20;56.50
41437;DHT22;27178;49.460;10.850;2024-01-10T02:51:09;0.00;56.80
41437;DHT22;27178;49.460;10.850;2024-01-10T02:53:38;-0.20;56.80
41437;DHT22;27178;49.460;10.850;2024-01-10T02:56:06;-0.20;56.90
41437;DHT22;27178;49.460;10.850;2024-01-10T02:58:34;-0.20;56.80
41437;DHT22;27178;49.460;10.850;2024-01-10T03:01:04;-0.20;56.80
41437;DHT22;27178;49.460;10.850;2024-01-10T03:03:33;-0.20;56.80
41437;DHT22;27178;49.460;10.850;2024-01-10T03:06:01;-0.20;56.80
41437;DHT22;27178;49.460;10.850;2024-01-10T03:08:29;-0.20;56.80
41437;DHT22;27178;49.460;10.850;2024-01-10T03:10:58;-0.20;56.90
41437;DHT22;27178;49.460;10.850;2024-01-10T03:13:26;-0.20;57.00
41437;DHT22;27178;49.460;10.850;2024-01-10T03:15:55;-0.10;57.10
41437;DHT22;27178;49.460;10.850;2024-01-10T03:18:24;-0.10;57.20
41437;DHT22;27178;49.460;10.850;2024-01-10T03:20:52;-0.10;57.10
41437;DHT22;27178;49.460;10.850;2024-01-10T03:23:21;-0.10;57.00
41437;DHT22;27178;49.460;10.850;2024-01-10T03:25:49;-0.10;57.10
41437;DHT22;27178;49.460;10.850;2024-01-10T03:28:18;-0.10;57.10
41437;DHT22;27178;49.460;10.850;2024-01-10T03:30:47;-0.10;57.00
41437;DHT22;27178;49.460;10.850;2024-01-10T03:33:15;-0.10;57.10
41437;DHT22;27178;49.460;10.850;2024-01-10T03:35:44;-0.10;57.10
41437;DHT22;27178;49.460;10.850;2024-01-10T03:38:13;-0.10;57.00
41437;DHT22;27178;49.460;10.850;2024-01-10T03:40:43;-0.10;57.20
41437;DHT22;27178;49.460;10.850;2024-01-10T03:43:12;-0.10;57.30
41437;DHT22;27178;49.460;10.850;2024-01-10T03:45:40;-0.10;57.40
41437;DHT22;27178;49.460;10.850;2024-01-10T03:48:09;-0.10;57.40
41437;DHT22;27178;49.460;10.850;2024-01-10T03:50:37;-0.10;57.40
41437;DHT22;27178;49.460;10.850;2024-01-10T03:53:07;-0.10;57.40
41437;DHT22;27178;49.460;10.850;2024-01-10T03:55:35;-0.10;57.30
41437;DHT22;27178;49.460;10.850;2024-01-10T03:58:03;-0.10;57.40
41437;DHT22;27178;49.460;10.850;2024-01-10T04:00:32;-0.10;57.40
41437;DHT22;27178;49.460;10.850;2024-01-10T04:03:00;-0.10;57.30
41437;DHT22;27178;49.460;10.850;2024-01-10T04:05:29;-0.10;57.20
41437;DHT22;27178;49.460;10.850;2024-01-10T04:07:58;-0.10;57.40
41437;DHT22;27178;49.460;10.850;2024-01-10T04:10:27;-0.10;57.50
41437;DHT22;27178;49.460;10.850;2024-01-10T04:12:56;-0.10;57.60
41437;DHT22;27178;49.460;10.850;2024-01-10T04:15:24;-0.10;57.60
41437;DHT22;27178;49.460;10.850;2024-01-10T04:17:52;-0.10;57.70
41437;DHT22;27178;49.460;10.850;2024-01-10T04:20:20;-0.10;57.50
41437;DHT22;27178;49.460;10.850;2024-01-10T04:22:49;-0.10;57.50
41437;DHT22;27178;49.460;10.850;2024-01-10T04:25:17;-0.10;57.40
41437;DHT22;27178;49.460;10.850;2024-01-10T04:27:47;-0.10;58.10
41437;DHT22;27178;49.460;10.850;2024-01-10T04:30:17;-0.10;57.50
41437;DHT22;27178;49.460;10.850;2024-01-10T04:32:45;-0.10;57.50
41437;DHT22;27178;49.460;10.850;2024-01-10T04:35:13;-0.10;57.50
41437;DHT22;27178;49.460;10.850;2024-01-10T04:37:42;-0.10;57.50
41437;DHT22;27178;49.460;10.850;2024-01-10T04:40:11;-0.10;57.50
41437;DHT22;27178;49.460;10.850;2024-01-10T04:42:39;-0.10;57.50
41437;DHT22;27178;49.460;10.850;2024-01-10T04:45:09;-0.10;57.60
41437;DHT22;27178;49.460;10.850;2024-01-10T04:47:38;-0.20;57.60
41437;DHT22;27178;49.460;10.850;2024-01-10T04:50:07;-0.10;57.70
41437;DHT22;27178;49.460;10.850;2024-01-10T04:52:40;-0.20;57.80
41437;DHT22;27178;49.460;10.850;2024-01-10T04:55:08;-0.20;57.70
41437;DHT22;27178;49.460;10.850;2024-01-10T04:57:38;-0.20;57.70
41437;DHT22;27178;49.460;10.850;2024-01-10T05:00:07;-0.10;57.70
41437;DHT22;27178;49.460;10.850;2024-01-10T05:02:36;-0.20;57.70
41437;DHT22;27178;49.460;10.850;2024-01-10T05:05:06;-0.20;57.70
41437;DHT22;27178;49.460;10.850;2024-01-10T05:07:34;-0.20;57.70
41437;DHT22;27178;49.460;10.850;2024-01-10T05:10:03;-0.10;57.60
41437;DHT22;27178;49.460;10.850;2024-01-10T05:12:31;-0.20;57.50
41437;DHT22;27178;49.460;10.850;2024-01-10T05:14:59;-0.20;57.50
41437;DHT22;27178;49.460;10.850;2024-01-10T05:17:28;-0.10;57.60
41437;DHT22;27178;49.460;10.850;2024-01-10T05:19:57;0.70;57.90
41437;DHT22;27178;49.460;10.850;2024-01-10T05:22:25;-0.20;57.40
41437;DHT22;27178;49.460;10.850;2024-01-10T05:24:54;-0.20;57.50
41437;DHT22;27178;49.460;10.850;2024-01-10T05:27:22;-0.20;57.60
41437;DHT22;27178;49.460;10.850;2024-01-10T05:29:50;-0.20;57.60
41437;DHT22;27178;49.460;10.850;2024-01-10T05:32:18;-0.20;57.60
41437;DHT22;27178;49.460;10.850;2024-01-10T05:34:47;-0.20;57.70
41437;DHT22;27178;49.460;10.850;2024-01-10T05:37:18;-0.20;57.70
41437;DHT22;27178;49.460;10.850;2024-01-10T05:39:46;-0.20;57.70
41437;DHT22;27178;49.460;10.850;2024-01-10T05:42:14;-0.20;57.70
41437;DHT22;27178;49.460;10.850;2024-01-10T05:44:42;-0.20;57.70
41437;DHT22;27178;49.460;10.850;2024-01-10T05:47:11;-0.20;57.70
41437;DHT22;27178;49.460;10.850;2024-01-10T05:49:39;0.90;58.30
41437;DHT22;27178;49.460;10.850;2024-01-10T05:52:07;-0.20;57.90
41437;DHT22;27178;49.460;10.850;2024-01-10T05:54:37;-0.20;57.70
41437;DHT22;27178;49.460;10.850;2024-01-10T05:57:05;-0.20;57.70
41437;DHT22;27178;49.460;10.850;2024-01-10T05:59:33;-0.20;57.80
41437;DHT22;27178;49.460;10.850;2024-01-10T06:02:03;-0.20;57.90
41437;DHT22;27178;49.460;10.850;2024-01-10T06:04:31;-0.20;57.90
41437;DHT22;27178;49.460;10.850;2024-01-10T06:07:00;-0.20;58.00
41437;DHT22;27178;49.460;10.850;2024-01-10T06:09:28;-0.20;58.10
41437;DHT22;27178;49.460;10.850;2024-01-10T06:11:58;-0.20;58.10
41437;DHT22;27178;49.460;10.850;2024-01-10T06:14:26;-0.20;58.10
41437;DHT22;27178;49.460;10.850;2024-01-10T06:16:54;-0.20;58.10
41437;DHT22;27178;49.460;10.850;2024-01-10T06:19:26;-0.20;58.10
41437;DHT22;27178;49.460;10.850;2024-01-10T06:21:55;-0.20;58.10
41437;DHT22;27178;49.460;10.850;2024-01-10T06:24:23;-0.20;58.10
41437;DHT22;27178;49.460;10.850;2024-01-10T06:26:51;-0.20;58.00
41437;DHT22;27178;49.460;10.850;2024-01-10T06:29:21;-0.30;57.90
41437;DHT22;27178;49.460;10.850;2024-01-10T06:31:49;-0.30;58.20
41437;DHT22;27178;49.460;10.850;2024-01-10T06:34:17;-0.20;58.30
41437;DHT22;27178;49.460;10.850;2024-01-10T06:36:45;-0.20;58.30
41437;DHT22;27178;49.460;10.850;2024-01-10T06:39:14;-0.20;58.40
41437;DHT22;27178;49.460;10.850;2024-01-10T06:41:47;-0.30;58.40
41437;DHT22;27178;49.460;10.850;2024-01-10T06:44:15;-0.30;58.40
41437;DHT22;27178;49.460;10.850;2024-01-10T06:46:46;-0.20;58.40
41437;DHT22;27178;49.460;10.850;2024-01-10T06:49:14;-0.20;59.20
41437;DHT22;27178;49.460;10.850;2024-01-10T06:51:43;-0.30;58.50
41437;DHT22;27178;49.460;10.850;2024-01-10T06:54:11;-0.30;58.40
41437;DHT22;27178;49.460;10.850;2024-01-10T06:56:40;-0.20;58.50
41437;DHT22;27178;49.460;10.850;2024-01-10T06:59:12;-0.30;58.50
41437;DHT22;27178;49.460;10.850;2024-01-10T07:01:41;-0.30;58.30
41437;DHT22;27178;49.460;10.850;2024-01-10T07:04:10;-0.30;58.30
41437;DHT22;27178;49.460;10.850;2024-01-10T07:06:41;-0.30;58.50
41437;DHT22;27178;49.460;10.850;2024-01-10T07:09:09;-0.30;58.60
41437;DHT22;27178;49.460;10.850;2024-01-10T07:11:37;-0.30;58.70
41437;DHT22;27178;49.460;10.850;2024-01-10T07:14:07;-0.30;58.70
41437;DHT22;27178;49.460;10.850;2024-01-10T07:16:35;-0.30;59.00
41437;DHT22;27178;49.460;10.850;2024-01-10T07:19:03;-0.30;58.70
41437;DHT22;27178;49.460;10.850;2024-01-10T07:21:36;-0.40;58.60
41437;DHT22;27178;49.460;10.850;2024-01-10T07:24:09;-0.30;58.80
41437;DHT22;27178;49.460;10.850;2024-01-10T07:26:39;-0.30;58.90
41437;DHT22;27178;49.460;10.850;2024-01-10T07:29:08;-0.40;58.90
41437;DHT22;27178;49.460;10.850;2024-01-10T07:31:36;-0.40;58.90
41437;DHT22;27178;49.460;10.850;2024-01-10T07:34:04;-0.30;59.00
41437;DHT22;27178;49.460;10.850;2024-01-10T07:36:33;-0.40;59.00
41437;DHT22;27178;49.460;10.850;2024-01-10T07:39:03;-0.40;59.10
41437;DHT22;27178;49.460;10.850;2024-01-10T07:41:31;-0.40;59.10
41437;DHT22;27178;49.460;10.850;2024-01-10T07:44:00;-0.40;59.10
41437;DHT22;27178;49.460;10.850;2024-01-10T07:46:28;-0.40;59.20
41437;DHT22;27178;49.460;10.850;2024-01-10T07:48:56;-0.40;59.10
41437;DHT22;27178;49.460;10.850;2024-01-10T07:51:27;-0.40;59.20
41437;DHT22;27178;49.460;10.850;2024-01-10T07:53:55;-0.40;59.30
41437;DHT22;27178;49.460;10.850;2024-01-10T07:56:27;-0.40;59.20
41437;DHT22;27178;49.460;10.850;2024-01-10T07:58:56;-0.40;59.30
41437;DHT22;27178;49.460;10.850;2024-01-10T08:01:25;-0.40;59.30
41437;DHT22;27178;49.460;10.850;2024-01-10T08:03:53;-0.40;59.30
41437;DHT22;27178;49.460;10.850;2024-01-10T08:06:23;-0.40;59.30
41437;DHT22;27178;49.460;10.850;2024-01-10T08:08:59;-0.40;59.40
41437;DHT22;27178;49.460;10.850;2024-01-10T08:11:32;-0.40;59.50
41437;DHT22;27178;49.460;10.850;2024-01-10T08:14:01;-0.40;59.50
41437;DHT22;27178;49.460;10.850;2024-01-10T08:16:29;-0.40;59.50
41437;DHT22;27178;49.460;10.850;2024-01-10T08:19:00;-0.30;59.50
41437;DHT22;27178;49.460;10.850;2024-01-10T08:21:29;-0.30;59.60
41437;DHT22;27178;49.460;10.850;2024-01-10T08:23:57;-0.30;59.70
41437;DHT22;27178;49.460;10.850;2024-01-10T08:26:26;-0.30;59.70
41437;DHT22;27178;49.460;10.850;2024-01-10T08:28:56;-0.30;59.50
41437;DHT22;27178;49.460;10.850;2024-01-10T08:31:24;-0.30;59.60
41437;DHT22;27178;49.460;10.850;2024-01-10T08:33:54;-0.30;59.60
41437;DHT22;27178;49.460;10.850;2024-01-10T08:36:23;-0.30;59.50
41437;DHT22;27178;49.460;10.850;2024-01-10T08:38:52;-0.30;59.60
41437;DHT22;27178;49.460;10.850;2024-01-10T08:41:20;-0.20;59.70
41437;DHT22;27178;49.460;10.850;2024-01-10T08:43:48;-0.20;59.70
41437;DHT22;27178;49.460;10.850;2024-01-10T08:46:19;-0.20;59.70
41437;DHT22;27178;49.460;10.850;2024-01-10T08:48:47;-0.20;59.70
41437;DHT22;27178;49.460;10.850;2024-01-10T08:51:16;-0.20;59.70
41437;DHT22;27178;49.460;10.850;2024-01-10T08:53:44;-0.20;59.70
41437;DHT22;27178;49.460;10.850;2024-01-10T08:56:12;-0.10;59.80
41437;DHT22;27178;49.460;10.850;2024-01-10T08:58:41;-0.10;59.80
41437;DHT22;27178;49.460;10.850;2024-01-10T09:01:09;-0.10;59.70
41437;DHT22;27178;49.460;10.850;2024-01-10T09:03:39;-0.10;59.70
41437;DHT22;27178;49.460;10.850;2024-01-10T09:06:07;0.00;59.90
41437;DHT22;27178;49.460;10.850;2024-01-10T09:08:38;0.00;60.00
41437;DHT22;27178;49.460;10.850;2024-01-10T09:11:07;0.00;60.00
41437;DHT22;27178;49.460;10.850;2024-01-10T09:13:35;0.00;60.00
41437;DHT22;27178;49.460;10.850;2024-01-10T09:16:05;0.10;60.00
41437;DHT22;27178;49.460;10.850;2024-01-10T09:18:33;0.10;60.10
41437;DHT22;27178;49.460;10.850;2024-01-10T09:21:04;0.20;60.10
41437;DHT22;27178;49.460;10.850;2024-01-10T09:23:32;0.20;60.00
41437;DHT22;27178;49.460;10.850;2024-01-10T09:26:00;0.20;60.00
41437;DHT22;27178;49.460;10.850;2024-01-10T09:28:28;0.20;60.10
41437;DHT22;27178;49.460;10.850;2024-01-10T09:30:56;0.30;60.10
41437;DHT22;27178;49.460;10.850;2024-01-10T09:33:25;0.30;60.10
41437;DHT22;27178;49.460;10.850;2024-01-10T09:35:53;0.30;60.30
41437;DHT22;27178;49.460;10.850;2024-01-10T09:38:25;0.40;60.10
41437;DHT22;27178;49.460;10.850;2024-01-10T09:40:58;0.40;59.90
41437;DHT22;27178;49.460;10.850;2024-01-10T09:43:30;0.50;59.90
41437;DHT22;27178;49.460;10.850;2024-01-10T09:45:59;0.50;59.80
41437;DHT22;27178;49.460;10.850;2024-01-10T09:48:29;0.50;59.80
41437;DHT22;27178;49.460;10.850;2024-01-10T09:50:57;0.60;59.90
41437;DHT22;27178;49.460;10.850;2024-01-10T09:53:28;0.60;60.00
41437;DHT22;27178;49.460;10.850;2024-01-10T09:55:59;0.60;60.00
41437;DHT22;27178;49.460;10.850;2024-01-10T09:58:28;0.60;59.90
41437;DHT22;27178;49.460;10.850;2024-01-10T10:00:56;0.70;59.90
41437;DHT22;27178;49.460;10.850;2024-01-10T10:03:26;0.70;59.90
41437;DHT22;27178;49.460;10.850;2024-01-10T10:05:55;0.80;59.80
41437;DHT22;27178;49.460;10.850;2024-01-10T10:08:24;0.80;59.90
41437;DHT22;27178;49.460;10.850;2024-01-10T10:10:53;0.80;59.80
41437;DHT22;27178;49.460;10.850;2024-01-10T10:13:25;0.80;59.80
41437;DHT22;27178;49.460;10.850;2024-01-10T10:16:00;0.90;59.80
41437;DHT22;27178;49.460;10.850;2024-01-10T10:18:29;0.90;59.90
41437;DHT22;27178;49.460;10.850;2024-01-10T10:21:07;0.90;60.00
41437;DHT22;27178;49.460;10.850;2024-01-10T10:23:37;0.90;59.90
41437;DHT22;27178;49.460;10.850;2024-01-10T10:26:14;1.00;59.90
41437;DHT22;27178;49.460;10.850;2024-01-10T10:28:47;1.00;60.00
41437;DHT22;27178;49.460;10.850;2024-01-10T10:31:17;1.10;60.00
41437;DHT22;27178;49.460;10.850;2024-01-10T10:33:49;1.10;60.00
41437;DHT22;27178;49.460;10.850;2024-01-10T10:36:18;1.20;60.00
41437;DHT22;27178;49.460;10.850;2024-01-10T10:38:47;1.20;60.00
41437;DHT22;27178;49.460;10.850;2024-01-10T10:41:19;1.30;60.00
41437;DHT22;27178;49.460;10.850;2024-01-10T10:43:49;1.30;60.00
41437;DHT22;27178;49.460;10.850;2024-01-10T10:46:18;1.30;60.00
41437;DHT22;27178;49.460;10.850;2024-01-10T10:48:49;3.00;61.10
41437;DHT22;27178;49.460;10.850;2024-01-10T10:51:23;1.40;60.00
41437;DHT22;27178;49.460;10.850;2024-01-10T10:53:56;1.50;60.00
41437;DHT22;27178;49.460;10.850;2024-01-10T10:56:28;1.50;60.00
41437;DHT22;27178;49.460;10.850;2024-01-10T10:58:58;1.60;60.00
41437;DHT22;27178;49.460;10.850;2024-01-10T11:01:29;1.60;60.00
41437;DHT22;27178;49.460;10.850;2024-01-10T11:03:57;1.60;60.20
41437;DHT22;27178;49.460;10.850;2024-01-10T11:06:27;1.70;60.10
41437;DHT22;27178;49.460;10.850;2024-01-10T11:09:00;1.70;60.00
41437;DHT22;27178;49.460;10.850;2024-01-10T11:11:48;1.80;60.00
41437;DHT22;27178;49.460;10.850;2024-01-10T11:14:33;1.80;60.00
41437;DHT22;27178;49.460;10.850;2024-01-10T11:17:21;1.90;60.00
41437;DHT22;27178;49.460;10.850;2024-01-10T11:20:10;1.90;60.20
41437;DHT22;27178;49.460;10.850;2024-01-10T11:23:12;1.90;60.10
41437;DHT22;27178;49.460;10.850;2024-01-10T11:25:45;2.00;60.30
41437;DHT22;27178;49.460;10.850;2024-01-10T11:28:15;2.00;60.20
41437;DHT22;27178;49.460;10.850;2024-01-10T11:30:51;2.10;60.20
41437;DHT22;27178;49.460;10.850;2024-01-10T11:33:22;2.10;60.10
41437;DHT22;27178;49.460;10.850;2024-01-10T11:36:16;2.10;60.10
41437;DHT22;27178;49.460;10.850;2024-01-10T11:38:49;2.20;60.30
41437;DHT22;27178;49.460;10.850;2024-01-10T11:41:23;2.20;60.10
41437;DHT22;27178;49.460;10.850;2024-01-10T11:44:27;2.30;60.00
41437;DHT22;27178;49.460;10.850;2024-01-10T11:46:58;2.30;60.00
41437;DHT22;27178;49.460;10.850;2024-01-10T11:49:26;2.40;60.00
41437;DHT22;27178;49.460;10.850;2024-01-10T11:51:56;2.40;59.90
41437;DHT22;27178;49.460;10.850;2024-01-10T11:54:41;2.40;59.90
41437;DHT22;27178;49.460;10.850;2024-01-10T11:57:12;2.50;59.90
41437;DHT22;27178;49.460;10.850;2024-01-10T11:59:42;2.50;59.90
41437;DHT22;27178;49.460;10.850;2024-01-10T12:02:12;2.50;59.90
41437;DHT22;27178;49.460;10.850;2024-01-10T12:04:42;2.60;59.90
41437;DHT22;27178;49.460;10.850;2024-01-10T12:07:15;2.60;59.90
41437;DHT22;27178;49.460;10.850;2024-01-10T12:09:45;2.60;59.90
41437;DHT22;27178;49.460;10.850;2024-01-10T12:12:14;2.70;59.80
41437;DHT22;27178;49.460;10.850;2024-01-10T12:14:43;2.70;59.80
41437;DHT22;27178;49.460;10.850;2024-01-10T12:17:13;3.50;60.10
41437;DHT22;27178;49.460;10.850;2024-01-10T12:19:41;2.70;59.70
41437;DHT22;27178;49.460;10.850;2024-01-10T12:22:13;2.80;59.80
41437;DHT22;27178;49.460;10.850;2024-01-10T12:24:47;2.90;59.70
41437;DHT22;27178;49.460;10.850;2024-01-10T12:27:17;2.90;59.80
41437;DHT22;27178;49.460;10.850;2024-01-10T12:29:51;2.90;59.80
41437;DHT22;27178;49.460;10.850;2024-01-10T12:32:21;3.00;60.10
41437;DHT22;27178;49.460;10.850;2024-01-10T12:34:57;3.00;61.00
41437;DHT22;27178;49.460;10.850;2024-01-10T12:37:26;3.10;60.00
41437;DHT22;27178;49.460;10.850;2024-01-10T12:39:54;3.10;60.00
41437;DHT22;27178;49.460;10.850;2024-01-10T12:42:24;3.20;60.10
41437;DHT22;27178;49.460;10.850;2024-01-10T12:44:54;3.20;60.10
41437;DHT22;27178;49.460;10.850;2024-01-10T12:47:24;3.30;60.10
41437;DHT22;27178;49.460;10.850;2024-01-10T12:49:53;3.30;59.90
41437;DHT22;27178;49.460;10.850;2024-01-10T12:52:22;3.30;59.80
41437;DHT22;27178;49.460;10.850;2024-01-10T12:54:52;3.40;59.90
41437;DHT22;27178;49.460;10.850;2024-01-10T12:57:20;3.40;59.90
41437;DHT22;27178;49.460;10.850;2024-01-10T12:59:52;3.50;60.00
41437;DHT22;27178;49.460;10.850;2024-01-10T13:02:20;3.50;60.00
41437;DHT22;27178;49.460;10.850;2024-01-10T13:04:49;3.60;60.10
41437;DHT22;27178;49.460;10.850;2024-01-10T13:07:17;3.60;60.00
41437;DHT22;27178;49.460;10.850;2024-01-10T13:09:45;3.70;60.20
41437;DHT22;27178;49.460;10.850;2024-01-10T13:12:14;3.80;60.40
41437;DHT22;27178;49.460;10.850;2024-01-10T13:14:42;3.90;60.30
41437;DHT22;27178;49.460;10.850;2024-01-10T13:17:11;4.00;60.20
41437;DHT22;27178;49.460;10.850;2024-01-10T13:19:40;4.20;60.40
41437;DHT22;27178;49.460;10.850;2024-01-10T13:22:10;4.30;60.30
41437;DHT22;27178;49.460;10.850;2024-01-10T13:24:41;4.60;60.30
41437;DHT22;27178;49.460;10.850;2024-01-10T13:27:10;4.80;60.10
41437;DHT22;27178;49.460;10.850;2024-01-10T13:29:39;5.00;60.00
41437;DHT22;27178;49.460;10.850;2024-01-10T13:32:07;5.20;59.70
41437;DHT22;27178;49.460;10.850;2024-01-10T13:34:39;5.40;59.40
41437;DHT22;27178;49.460;10.850;2024-01-10T13:37:07;5.50;59.20
41437;DHT22;27178;49.460;10.850;2024-01-10T13:39:41;5.70;59.10
41437;DHT22;27178;49.460;10.850;2024-01-10T13:42:09;5.90;58.70
41437;DHT22;27178;49.460;10.850;2024-01-10T13:44:38;6.00;58.40
41437;DHT22;27178;49.460;10.850;2024-01-10T13:47:07;6.20;58.30
41437;DHT22;27178;49.460;10.850;2024-01-10T13:49:35;6.30;58.00
41437;DHT22;27178;49.460;10.850;2024-01-10T13:52:05;6.40;58.00
41437;DHT22;27178;49.460;10.850;2024-01-10T13:54:33;6.50;58.70
41437;DHT22;27178;49.460;10.850;2024-01-10T13:57:04;6.60;58.00
41437;DHT22;27178;49.460;10.850;2024-01-10T13:59:32;6.80;57.70
41437;DHT22;27178;49.460;10.850;2024-01-10T14:02:00;6.80;57.30
41437;DHT22;27178;49.460;10.850;2024-01-10T14:04:29;6.90;57.20
41437;DHT22;27178;49.460;10.850;2024-01-10T14:06:57;7.00;56.70
41437;DHT22;27178;49.460;10.850;2024-01-10T14:09:27;7.00;56.40
41437;DHT22;27178;49.460;10.850;2024-01-10T14:11:55;6.90;56.30
41437;DHT22;27178;49.460;10.850;2024-01-10T14:14:23;6.80;56.10
41437;DHT22;27178;49.460;10.850;2024-01-10T14:16:52;6.70;55.80
41437;DHT22;27178;49.460;10.850;2024-01-10T14:19:21;6.60;55.70
41437;DHT22;27178;49.460;10.850;2024-01-10T14:21:49;6.40;56.00
41437;DHT22;27178;49.460;10.850;2024-01-10T14:24:18;6.30;56.00
41437;DHT22;27178;49.460;10.850;2024-01-10T14:26:48;6.20;55.90
41437;DHT22;27178;49.460;10.850;2024-01-10T14:29:16;6.00;56.00
41437;DHT22;27178;49.460;10.850;2024-01-10T14:31:44;5.90;56.10
41437;DHT22;27178;49.460;10.850;2024-01-10T14:34:33;5.70;56.30
41437;DHT22;27178;49.460;10.850;2024-01-10T14:37:01;5.60;56.50
41437;DHT22;27178;49.460;10.850;2024-01-10T14:39:30;5.50;56.60
41437;DHT22;27178;49.460;10.850;2024-01-10T14:42:03;5.40;57.40
41437;DHT22;27178;49.460;10.850;2024-01-10T14:44:31;5.30;56.90
41437;DHT22;27178;49.460;10.850;2024-01-10T14:47:00;5.20;56.80
41437;DHT22;27178;49.460;10.850;2024-01-10T14:49:38;5.10;56.90
41437;DHT22;27178;49.460;10.850;2024-01-10T14:52:06;4.90;56.90
41437;DHT22;27178;49.460;10.850;2024-01-10T14:54:34;4.80;57.00
41437;DHT22;27178;49.460;10.850;2024-01-10T14:57:04;4.70;57.20
41437;DHT22;27178;49.460;10.850;2024-01-10T14:59:32;4.60;57.40
41437;DHT22;27178;49.460;10.850;2024-01-10T15:02:12;4.50;57.50
41437;DHT22;27178;49.460;10.850;2024-01-10T15:04:40;4.40;57.50
41437;DHT22;27178;49.460;10.850;2024-01-10T15:07:08;4.40;57.70
41437;DHT22;27178;49.460;10.850;2024-01-10T15:09:37;4.30;57.70
41437;DHT22;27178;49.460;10.850;2024-01-10T15:12:07;4.20;57.80
41437;DHT22;27178;49.460;10.850;2024-01-10T15:14:36;4.10;57.80
41437;DHT22;27178;49.460;10.850;2024-01-10T15:17:07;4.10;57.90
41437;DHT22;27178;49.460;10.850;2024-01-10T15:19:38;4.00;58.10
41437;DHT22;27178;49.460;10.850;2024-01-10T15:22:07;3.90;58.20
41437;DHT22;27178;49.460;10.850;2024-01-10T15:24:36;3.80;58.10
41437;DHT22;27178;49.460;10.850;2024-01-10T15:27:06;3.80;58.10
41437;DHT22;27178;49.460;10.850;2024-01-10T15:29:37;3.70;58.20
41437;DHT22;27178;49.460;10.850;2024-01-10T15:32:06;3.70;58.30
41437;DHT22;27178;49.460;10.850;2024-01-10T15:34:35;3.60;58.20
41437;DHT22;27178;49.460;10.850;2024-01-10T15:37:05;3.50;58.40
41437;DHT22;27178;49.460;10.850;2024-01-10T15:39:33;3.50;58.60